sensor_id;sensor_type;location;lat;lon;timestamp;P1;durP1;ratioP1;P2;durP2;ratioP2
1048;SDS011;513;51.444;7.196;2023-08-31T00:02:25;14.98;;;5.80;;
1048;SDS011;513;51.444;7.196;2023-08-31T00:04:52;11.57;;;5.80;;
1048;SDS011;513;51.444;7.196;2023-08-31T00:07:20;12.23;;;5.20;;
1048;SDS011;513;51.444;7.196;2023-08-31T00:09:49;9.95;;;5.07;;
1048;SDS011;513;51.444;7.196;2023-08-31T00:12:16;8.82;;;4.93;;
1048;SDS011;513;51.444;7.196;2023-08-31T00:14:43;9.50;;;4.90;;
1048;SDS011;513;51.444;7.196;2023-08-31T00:17:10;10.30;;;4.68;;
1048;SDS011;513;51.444;7.196;2023-08-31T00:19:38;8.43;;;4.70;;
1048;SDS011;513;51.444;7.196;2023-08-31T00:22:05;10.30;;;5.13;;
1048;SDS011;513;51.444;7.196;2023-08-31T00:24:32;9.50;;;5.03;;
1048;SDS011;513;51.444;7.196;2023-08-31T00:27:03;10.10;;;4.82;;
1048;SDS011;513;51.444;7.196;2023-08-31T00:29:31;11.43;;;4.90;;
1048;SDS011;513;51.444;7.196;2023-08-31T00:31:58;12.60;;;4.85;;
1048;SDS011;513;51.444;7.196;2023-08-31T00:34:25;8.02;;;4.53;;
1048;SDS011;513;51.444;7.196;2023-08-31T00:36:52;13.03;;;5.10;;
1048;SDS011;513;51.444;7.196;2023-08-31T00:39:19;11.00;;;4.50;;
1048;SDS011;513;51.444;7.196;2023-08-31T00:41:46;9.65;;;4.97;;
1048;SDS011;513;51.444;7.196;2023-08-31T00:44:16;7.40;;;4.20;;
1048;SDS011;513;51.444;7.196;2023-08-31T00:46:43;7.20;;;4.72;;
1048;SDS011;513;51.444;7.196;2023-08-31T00:49:10;10.07;;;4.28;;
1048;SDS011;513;51.444;7.196;2023-08-31T00:51:39;11.18;;;4.35;;
1048;SDS011;513;51.444;7.196;2023-08-31T00:54:06;8.45;;;4.85;;
1048;SDS011;513;51.444;7.196;2023-08-31T00:56:33;7.07;;;4.50;;
1048;SDS011;513;51.444;7.196;2023-08-31T00:59:01;8.27;;;5.05;;
1048;SDS011;513;51.444;7.196;2023-08-31T01:01:32;9.82;;;5.03;;
1048;SDS011;513;51.444;7.196;2023-08-31T01:04:03;9.43;;;4.88;;
1048;SDS011;513;51.444;7.196;2023-08-31T01:06:36;7.90;;;4.85;;
1048;SDS011;513;51.444;7.196;2023-08-31T01:09:09;9.63;;;4.90;;
1048;SDS011;513;51.444;7.196;2023-08-31T01:11:41;10.57;;;5.30;;
1048;SDS011;513;51.444;7.196;2023-08-31T01:14:16;12.18;;;5.72;;
1048;SDS011;513;51.444;7.196;2023-08-31T01:16:47;11.13;;;5.85;;
1048;SDS011;513;51.444;7.196;2023-08-31T01:19:17;11.48;;;5.53;;
1048;SDS011;513;51.444;7.196;2023-08-31T01:21:50;9.52;;;5.63;;
1048;SDS011;513;51.444;7.196;2023-08-31T01:24:20;12.07;;;5.70;;
1048;SDS011;513;51.444;7.196;2023-08-31T01:26:48;10.18;;;5.88;;
1048;SDS011;513;51.444;7.196;2023-08-31T01:29:15;9.90;;;5.45;;
1048;SDS011;513;51.444;7.196;2023-08-31T01:31:42;9.73;;;5.68;;
1048;SDS011;513;51.444;7.196;2023-08-31T01:34:10;9.57;;;5.30;;
1048;SDS011;513;51.444;7.196;2023-08-31T01:36:38;11.15;;;5.63;;
1048;SDS011;513;51.444;7.196;2023-08-31T01:39:06;10.73;;;5.75;;
1048;SDS011;513;51.444;7.196;2023-08-31T01:41:37;8.52;;;5.80;;
1048;SDS011;513;51.444;7.196;2023-08-31T01:44:07;10.20;;;5.72;;
1048;SDS011;513;51.444;7.196;2023-08-31T01:46:37;11.75;;;5.93;;
1048;SDS011;513;51.444;7.196;2023-08-31T01:49:04;10.05;;;6.22;;
1048;SDS011;513;51.444;7.196;2023-08-31T01:51:32;12.07;;;6.10;;
1048;SDS011;513;51.444;7.196;2023-08-31T01:53:59;12.23;;;5.95;;
1048;SDS011;513;51.444;7.196;2023-08-31T01:56:26;9.15;;;5.47;;
1048;SDS011;513;51.444;7.196;2023-08-31T01:58:54;9.52;;;5.53;;
1048;SDS011;513;51.444;7.196;2023-08-31T02:01:21;9.07;;;5.53;;
1048;SDS011;513;51.444;7.196;2023-08-31T02:03:48;9.27;;;5.83;;
1048;SDS011;513;51.444;7.196;2023-08-31T02:06:15;10.77;;;6.05;;
1048;SDS011;513;51.444;7.196;2023-08-31T02:08:42;8.65;;;5.68;;
1048;SDS011;513;51.444;7.196;2023-08-31T02:11:12;7.45;;;5.82;;
1048;SDS011;513;51.444;7.196;2023-08-31T02:13:39;9.63;;;6.25;;
1048;SDS011;513;51.444;7.196;2023-08-31T02:16:08;11.30;;;6.30;;
1048;SDS011;513;51.444;7.196;2023-08-31T02:18:35;9.77;;;6.18;;
1048;SDS011;513;51.444;7.196;2023-08-31T02:21:02;10.55;;;6.18;;
1048;SDS011;513;51.444;7.196;2023-08-31T02:23:32;12.85;;;6.13;;
1048;SDS011;513;51.444;7.196;2023-08-31T02:25:59;8.20;;;5.78;;
1048;SDS011;513;51.444;7.196;2023-08-31T02:28:26;11.40;;;5.85;;
1048;SDS011;513;51.444;7.196;2023-08-31T02:30:57;10.70;;;6.30;;
1048;SDS011;513;51.444;7.196;2023-08-31T02:33:25;9.80;;;6.00;;
1048;SDS011;513;51.444;7.196;2023-08-31T02:35:53;11.35;;;6.32;;
1048;SDS011;513;51.444;7.196;2023-08-31T02:38:20;11.53;;;6.40;;
1048;SDS011;513;51.444;7.196;2023-08-31T02:40:47;9.80;;;6.22;;
1048;SDS011;513;51.444;7.196;2023-08-31T02:43:15;12.10;;;6.68;;
1048;SDS011;513;51.444;7.196;2023-08-31T02:45:42;12.10;;;7.00;;
1048;SDS011;513;51.444;7.196;2023-08-31T02:48:09;11.40;;;7.03;;
1048;SDS011;513;51.444;7.196;2023-08-31T02:50:38;12.07;;;7.28;;
1048;SDS011;513;51.444;7.196;2023-08-31T02:53:05;9.98;;;6.82;;
1048;SDS011;513;51.444;7.196;2023-08-31T02:55:32;10.48;;;6.82;;
1048;SDS011;513;51.444;7.196;2023-08-31T02:57:59;10.75;;;7.20;;
1048;SDS011;513;51.444;7.196;2023-08-31T03:00:26;12.27;;;7.27;;
1048;SDS011;513;51.444;7.196;2023-08-31T03:02:53;13.90;;;8.40;;
1048;SDS011;513;51.444;7.196;2023-08-31T03:05:20;10.25;;;7.47;;
1048;SDS011;513;51.444;7.196;2023-08-31T03:07:48;11.32;;;7.63;;
1048;SDS011;513;51.444;7.196;2023-08-31T03:10:16;14.73;;;8.20;;
1048;SDS011;513;51.444;7.196;2023-08-31T03:12:43;11.30;;;8.02;;
1048;SDS011;513;51.444;7.196;2023-08-31T03:15:10;12.67;;;8.13;;
1048;SDS011;513;51.444;7.196;2023-08-31T03:17:37;13.38;;;8.80;;
1048;SDS011;513;51.444;7.196;2023-08-31T03:20:04;12.65;;;8.13;;
1048;SDS011;513;51.444;7.196;2023-08-31T03:22:32;14.68;;;9.07;;
1048;SDS011;513;51.444;7.196;2023-08-31T03:25:00;16.35;;;9.30;;
1048;SDS011;513;51.444;7.196;2023-08-31T03:27:27;15.68;;;10.95;;
1048;SDS011;513;51.444;7.196;2023-08-31T03:29:54;16.58;;;11.65;;
1048;SDS011;513;51.444;7.196;2023-08-31T03:32:21;16.08;;;10.93;;
1048;SDS011;513;51.444;7.196;2023-08-31T03:34:48;14.75;;;10.73;;
1048;SDS011;513;51.444;7.196;2023-08-31T03:37:16;16.80;;;11.13;;
1048;SDS011;513;51.444;7.196;2023-08-31T03:39:43;16.83;;;11.00;;
1048;SDS011;513;51.444;7.196;2023-08-31T03:42:11;15.60;;;10.85;;
1048;SDS011;513;51.444;7.196;2023-08-31T03:44:38;18.30;;;12.60;;
1048;SDS011;513;51.444;7.196;2023-08-31T03:47:05;17.75;;;12.25;;
1048;SDS011;513;51.444;7.196;2023-08-31T03:49:32;19.48;;;12.95;;
1048;SDS011;513;51.444;7.196;2023-08-31T03:52:00;18.27;;;13.27;;
1048;SDS011;513;51.444;7.196;2023-08-31T03:54:27;17.50;;;13.50;;
1048;SDS011;513;51.444;7.196;2023-08-31T03:56:54;17.58;;;14.60;;
1048;SDS011;513;51.444;7.196;2023-08-31T03:59:22;21.33;;;15.85;;
1048;SDS011;513;51.444;7.196;2023-08-31T04:01:49;19.93;;;15.90;;
1048;SDS011;513;51.444;7.196;2023-08-31T04:04:16;21.77;;;16.40;;
1048;SDS011;513;51.444;7.196;2023-08-31T04:06:43;22.90;;;17.02;;
1048;SDS011;513;51.444;7.196;2023-08-31T04:09:10;23.58;;;18.05;;
1048;SDS011;513;51.444;7.196;2023-08-31T04:11:37;25.05;;;18.15;;
1048;SDS011;513;51.444;7.196;2023-08-31T04:14:04;29.00;;;19.75;;
1048;SDS011;513;51.444;7.196;2023-08-31T04:16:32;27.63;;;19.33;;
1048;SDS011;513;51.444;7.196;2023-08-31T04:18:59;26.23;;;19.30;;
1048;SDS011;513;51.444;7.196;2023-08-31T04:21:27;29.67;;;20.02;;
1048;SDS011;513;51.444;7.196;2023-08-31T04:23:54;28.35;;;19.23;;
1048;SDS011;513;51.444;7.196;2023-08-31T04:26:21;26.98;;;19.50;;
1048;SDS011;513;51.444;7.196;2023-08-31T04:28:49;26.92;;;19.95;;
1048;SDS011;513;51.444;7.196;2023-08-31T04:31:16;31.05;;;21.40;;
1048;SDS011;513;51.444;7.196;2023-08-31T04:33:44;29.23;;;20.52;;
1048;SDS011;513;51.444;7.196;2023-08-31T04:36:12;26.88;;;19.77;;
1048;SDS011;513;51.444;7.196;2023-08-31T04:38:39;26.52;;;19.75;;
1048;SDS011;513;51.444;7.196;2023-08-31T04:41:06;28.38;;;20.35;;
1048;SDS011;513;51.444;7.196;2023-08-31T04:43:34;32.50;;;20.98;;
1048;SDS011;513;51.444;7.196;2023-08-31T04:46:01;33.03;;;21.90;;
1048;SDS011;513;51.444;7.196;2023-08-31T04:48:29;29.70;;;20.70;;
1048;SDS011;513;51.444;7.196;2023-08-31T04:50:57;26.88;;;19.70;;
1048;SDS011;513;51.444;7.196;2023-08-31T04:53:24;31.75;;;20.63;;
1048;SDS011;513;51.444;7.196;2023-08-31T04:55:51;28.98;;;21.45;;
1048;SDS011;513;51.444;7.196;2023-08-31T04:58:18;33.35;;;21.25;;
1048;SDS011;513;51.444;7.196;2023-08-31T05:00:45;29.60;;;21.10;;
1048;SDS011;513;51.444;7.196;2023-08-31T05:03:13;33.92;;;22.13;;
1048;SDS011;513;51.444;7.196;2023-08-31T05:05:40;33.70;;;21.30;;
1048;SDS011;513;51.444;7.196;2023-08-31T05:08:08;33.67;;;21.93;;
1048;SDS011;513;51.444;7.196;2023-08-31T05:10:35;34.40;;;22.00;;
1048;SDS011;513;51.444;7.196;2023-08-31T05:13:02;34.75;;;21.83;;
1048;SDS011;513;51.444;7.196;2023-08-31T05:15:30;30.70;;;21.20;;
1048;SDS011;513;51.444;7.196;2023-08-31T05:17:58;33.83;;;22.17;;
1048;SDS011;513;51.444;7.196;2023-08-31T05:20:25;31.65;;;21.42;;
1048;SDS011;513;51.444;7.196;2023-08-31T05:22:52;33.63;;;22.52;;
1048;SDS011;513;51.444;7.196;2023-08-31T05:25:21;34.85;;;21.85;;
1048;SDS011;513;51.444;7.196;2023-08-31T05:27:48;32.25;;;21.90;;
1048;SDS011;513;51.444;7.196;2023-08-31T05:30:15;30.40;;;21.13;;
1048;SDS011;513;51.444;7.196;2023-08-31T05:32:42;31.85;;;22.83;;
1048;SDS011;513;51.444;7.196;2023-08-31T05:35:09;30.67;;;20.90;;
1048;SDS011;513;51.444;7.196;2023-08-31T05:37:36;26.70;;;20.30;;
1048;SDS011;513;51.444;7.196;2023-08-31T05:40:03;28.27;;;20.63;;
1048;SDS011;513;51.444;7.196;2023-08-31T05:42:33;29.27;;;21.67;;
1048;SDS011;513;51.444;7.196;2023-08-31T05:45:00;25.63;;;20.40;;
1048;SDS011;513;51.444;7.196;2023-08-31T05:47:27;25.88;;;20.27;;
1048;SDS011;513;51.444;7.196;2023-08-31T05:49:54;25.45;;;19.48;;
1048;SDS011;513;51.444;7.196;2023-08-31T05:52:21;25.70;;;19.33;;
1048;SDS011;513;51.444;7.196;2023-08-31T05:54:48;24.02;;;18.80;;
1048;SDS011;513;51.444;7.196;2023-08-31T05:57:18;25.35;;;19.13;;
1048;SDS011;513;51.444;7.196;2023-08-31T05:59:47;25.70;;;19.20;;
1048;SDS011;513;51.444;7.196;2023-08-31T06:02:14;25.67;;;19.20;;
1048;SDS011;513;51.444;7.196;2023-08-31T06:04:41;23.88;;;18.58;;
1048;SDS011;513;51.444;7.196;2023-08-31T06:07:08;22.63;;;17.80;;
1048;SDS011;513;51.444;7.196;2023-08-31T06:09:35;20.85;;;16.80;;
1048;SDS011;513;51.444;7.196;2023-08-31T06:12:03;20.90;;;17.25;;
1048;SDS011;513;51.444;7.196;2023-08-31T06:14:30;19.95;;;16.58;;
1048;SDS011;513;51.444;7.196;2023-08-31T06:16:59;18.58;;;15.25;;
1048;SDS011;513;51.444;7.196;2023-08-31T06:19:26;19.50;;;15.73;;
1048;SDS011;513;51.444;7.196;2023-08-31T06:21:53;17.80;;;14.73;;
1048;SDS011;513;51.444;7.196;2023-08-31T06:24:20;19.52;;;14.25;;
1048;SDS011;513;51.444;7.196;2023-08-31T06:26:47;14.60;;;12.60;;
1048;SDS011;513;51.444;7.196;2023-08-31T06:29:14;16.10;;;12.50;;
1048;SDS011;513;51.444;7.196;2023-08-31T06:31:41;14.63;;;12.65;;
1048;SDS011;513;51.444;7.196;2023-08-31T06:34:09;14.98;;;11.48;;
1048;SDS011;513;51.444;7.196;2023-08-31T06:36:36;13.83;;;10.90;;
1048;SDS011;513;51.444;7.196;2023-08-31T06:39:04;12.40;;;10.23;;
1048;SDS011;513;51.444;7.196;2023-08-31T06:41:31;13.38;;;9.70;;
1048;SDS011;513;51.444;7.196;2023-08-31T06:43:58;14.60;;;10.23;;
1048;SDS011;513;51.444;7.196;2023-08-31T06:46:25;11.93;;;9.48;;
1048;SDS011;513;51.444;7.196;2023-08-31T06:48:52;9.90;;;8.90;;
1048;SDS011;513;51.444;7.196;2023-08-31T06:51:21;11.93;;;9.27;;
1048;SDS011;513;51.444;7.196;2023-08-31T06:53:49;10.82;;;8.80;;
1048;SDS011;513;51.444;7.196;2023-08-31T06:56:16;9.23;;;8.00;;
1048;SDS011;513;51.444;7.196;2023-08-31T06:58:43;10.95;;;7.90;;
1048;SDS011;513;51.444;7.196;2023-08-31T07:01:12;8.57;;;7.05;;
1048;SDS011;513;51.444;7.196;2023-08-31T07:03:39;9.95;;;7.00;;
1048;SDS011;513;51.444;7.196;2023-08-31T07:06:06;7.63;;;6.53;;
1048;SDS011;513;51.444;7.196;2023-08-31T07:08:34;8.57;;;7.10;;
1048;SDS011;513;51.444;7.196;2023-08-31T07:11:02;9.80;;;6.50;;
1048;SDS011;513;51.444;7.196;2023-08-31T07:13:29;8.55;;;6.30;;
1048;SDS011;513;51.444;7.196;2023-08-31T07:15:56;10.15;;;6.05;;
1048;SDS011;513;51.444;7.196;2023-08-31T07:18:23;9.00;;;5.95;;
1048;SDS011;513;51.444;7.196;2023-08-31T07:20:50;9.48;;;5.55;;
1048;SDS011;513;51.444;7.196;2023-08-31T07:23:17;7.70;;;5.00;;
1048;SDS011;513;51.444;7.196;2023-08-31T07:25:45;8.38;;;5.28;;
1048;SDS011;513;51.444;7.196;2023-08-31T07:28:12;7.07;;;4.80;;
1048;SDS011;513;51.444;7.196;2023-08-31T07:30:39;5.68;;;4.10;;
1048;SDS011;513;51.444;7.196;2023-08-31T07:33:07;6.43;;;4.40;;
1048;SDS011;513;51.444;7.196;2023-08-31T07:35:34;8.37;;;4.17;;
1048;SDS011;513;51.444;7.196;2023-08-31T07:38:01;6.45;;;3.58;;
1048;SDS011;513;51.444;7.196;2023-08-31T07:40:28;6.68;;;3.50;;
1048;SDS011;513;51.444;7.196;2023-08-31T07:42:57;8.05;;;3.67;;
1048;SDS011;513;51.444;7.196;2023-08-31T07:45:24;6.03;;;3.30;;
1048;SDS011;513;51.444;7.196;2023-08-31T07:47:51;6.03;;;3.30;;
1048;SDS011;513;51.444;7.196;2023-08-31T07:50:18;5.30;;;3.25;;
1048;SDS011;513;51.444;7.196;2023-08-31T07:52:45;7.82;;;3.38;;
1048;SDS011;513;51.444;7.196;2023-08-31T07:55:12;5.15;;;3.17;;
1048;SDS011;513;51.444;7.196;2023-08-31T07:57:39;6.43;;;3.28;;
1048;SDS011;513;51.444;7.196;2023-08-31T08:00:08;7.38;;;3.40;;
1048;SDS011;513;51.444;7.196;2023-08-31T08:02:36;4.60;;;3.00;;
1048;SDS011;513;51.444;7.196;2023-08-31T08:05:03;4.20;;;3.00;;
1048;SDS011;513;51.444;7.196;2023-08-31T08:07:30;7.23;;;3.40;;
1048;SDS011;513;51.444;7.196;2023-08-31T08:09:57;5.60;;;3.50;;
1048;SDS011;513;51.444;7.196;2023-08-31T08:12:25;6.38;;;3.20;;
1048;SDS011;513;51.444;7.196;2023-08-31T08:14:52;7.03;;;3.00;;
1048;SDS011;513;51.444;7.196;2023-08-31T08:17:21;4.80;;;3.22;;
1048;SDS011;513;51.444;7.196;2023-08-31T08:19:48;5.72;;;3.15;;
1048;SDS011;513;51.444;7.196;2023-08-31T08:22:15;8.13;;;3.60;;
1048;SDS011;513;51.444;7.196;2023-08-31T08:24:42;6.88;;;3.20;;
1048;SDS011;513;51.444;7.196;2023-08-31T08:27:09;5.40;;;2.95;;
1048;SDS011;513;51.444;7.196;2023-08-31T08:29:36;5.63;;;2.92;;
1048;SDS011;513;51.444;7.196;2023-08-31T08:32:03;3.35;;;2.63;;
1048;SDS011;513;51.444;7.196;2023-08-31T08:34:32;5.25;;;2.70;;
1048;SDS011;513;51.444;7.196;2023-08-31T08:37:08;7.00;;;2.85;;
1048;SDS011;513;51.444;7.196;2023-08-31T08:39:47;6.47;;;3.13;;
1048;SDS011;513;51.444;7.196;2023-08-31T08:42:15;6.13;;;3.20;;
1048;SDS011;513;51.444;7.196;2023-08-31T08:44:44;4.95;;;2.70;;
1048;SDS011;513;51.444;7.196;2023-08-31T08:47:11;5.45;;;2.72;;
1048;SDS011;513;51.444;7.196;2023-08-31T08:49:40;6.68;;;3.00;;
1048;SDS011;513;51.444;7.196;2023-08-31T08:52:07;6.55;;;2.75;;
1048;SDS011;513;51.444;7.196;2023-08-31T08:54:34;6.70;;;3.10;;
1048;SDS011;513;51.444;7.196;2023-08-31T08:57:02;8.10;;;2.90;;
1048;SDS011;513;51.444;7.196;2023-08-31T08:59:29;4.65;;;2.95;;
1048;SDS011;513;51.444;7.196;2023-08-31T09:01:57;6.65;;;3.25;;
1048;SDS011;513;51.444;7.196;2023-08-31T09:04:28;6.85;;;3.15;;
1048;SDS011;513;51.444;7.196;2023-08-31T09:06:56;6.15;;;3.10;;
1048;SDS011;513;51.444;7.196;2023-08-31T09:09:23;4.78;;;2.70;;
1048;SDS011;513;51.444;7.196;2023-08-31T09:11:51;6.82;;;2.80;;
1048;SDS011;513;51.444;7.196;2023-08-31T09:14:20;4.35;;;3.15;;
1048;SDS011;513;51.444;7.196;2023-08-31T09:16:48;5.32;;;2.90;;
1048;SDS011;513;51.444;7.196;2023-08-31T09:19:18;6.22;;;3.15;;
1048;SDS011;513;51.444;7.196;2023-08-31T09:21:46;6.03;;;2.90;;
1048;SDS011;513;51.444;7.196;2023-08-31T09:24:15;6.15;;;2.85;;
1048;SDS011;513;51.444;7.196;2023-08-31T09:26:43;6.30;;;2.97;;
1048;SDS011;513;51.444;7.196;2023-08-31T09:29:11;5.10;;;3.00;;
1048;SDS011;513;51.444;7.196;2023-08-31T09:31:41;4.13;;;2.75;;
1048;SDS011;513;51.444;7.196;2023-08-31T09:34:08;5.95;;;2.92;;
1048;SDS011;513;51.444;7.196;2023-08-31T09:36:36;6.40;;;2.78;;
1048;SDS011;513;51.444;7.196;2023-08-31T09:39:03;4.10;;;2.40;;
1048;SDS011;513;51.444;7.196;2023-08-31T09:41:32;4.88;;;2.50;;
1048;SDS011;513;51.444;7.196;2023-08-31T09:44:04;3.95;;;2.30;;
1048;SDS011;513;51.444;7.196;2023-08-31T09:46:41;5.35;;;2.42;;
1048;SDS011;513;51.444;7.196;2023-08-31T09:49:08;5.10;;;2.40;;
1048;SDS011;513;51.444;7.196;2023-08-31T09:51:35;3.22;;;2.28;;
1048;SDS011;513;51.444;7.196;2023-08-31T09:54:05;4.07;;;2.30;;
1048;SDS011;513;51.444;7.196;2023-08-31T09:56:35;4.95;;;2.45;;
1048;SDS011;513;51.444;7.196;2023-08-31T09:59:02;6.60;;;2.60;;
1048;SDS011;513;51.444;7.196;2023-08-31T10:01:29;4.70;;;2.80;;
1048;SDS011;513;51.444;7.196;2023-08-31T10:03:56;4.97;;;2.20;;
1048;SDS011;513;51.444;7.196;2023-08-31T10:06:23;4.30;;;2.10;;
1048;SDS011;513;51.444;7.196;2023-08-31T10:08:51;4.93;;;2.20;;
1048;SDS011;513;51.444;7.196;2023-08-31T10:11:18;6.88;;;2.20;;
1048;SDS011;513;51.444;7.196;2023-08-31T10:13:48;4.13;;;2.20;;
1048;SDS011;513;51.444;7.196;2023-08-31T10:16:15;5.50;;;2.28;;
1048;SDS011;513;51.444;7.196;2023-08-31T10:18:44;4.28;;;2.00;;
1048;SDS011;513;51.444;7.196;2023-08-31T10:21:11;4.38;;;1.70;;
1048;SDS011;513;51.444;7.196;2023-08-31T10:23:43;4.30;;;1.98;;
1048;SDS011;513;51.444;7.196;2023-08-31T10:26:11;4.70;;;1.70;;
1048;SDS011;513;51.444;7.196;2023-08-31T10:28:39;2.97;;;2.00;;
1048;SDS011;513;51.444;7.196;2023-08-31T10:31:07;4.63;;;1.58;;
1048;SDS011;513;51.444;7.196;2023-08-31T10:33:35;3.80;;;1.90;;
1048;SDS011;513;51.444;7.196;2023-08-31T10:36:09;4.95;;;1.70;;
1048;SDS011;513;51.444;7.196;2023-08-31T10:38:36;3.60;;;1.60;;
1048;SDS011;513;51.444;7.196;2023-08-31T10:43:46;4.13;;;1.80;;
1048;SDS011;513;51.444;7.196;2023-08-31T10:46:25;3.47;;;1.63;;
1048;SDS011;513;51.444;7.196;2023-08-31T10:48:53;2.97;;;1.60;;
1048;SDS011;513;51.444;7.196;2023-08-31T10:51:21;4.35;;;1.80;;
1048;SDS011;513;51.444;7.196;2023-08-31T10:53:49;5.40;;;1.70;;
1048;SDS011;513;51.444;7.196;2023-08-31T10:56:16;4.07;;;1.63;;
1048;SDS011;513;51.444;7.196;2023-08-31T10:58:43;4.10;;;1.77;;
1048;SDS011;513;51.444;7.196;2023-08-31T11:04:07;6.68;;;2.00;;
1048;SDS011;513;51.444;7.196;2023-08-31T11:06:36;4.50;;;2.00;;
1048;SDS011;513;51.444;7.196;2023-08-31T11:09:03;6.20;;;1.83;;
1048;SDS011;513;51.444;7.196;2023-08-31T11:11:37;4.40;;;1.70;;
1048;SDS011;513;51.444;7.196;2023-08-31T11:14:04;5.17;;;1.80;;
1048;SDS011;513;51.444;7.196;2023-08-31T11:16:31;6.00;;;1.95;;
1048;SDS011;513;51.444;7.196;2023-08-31T11:18:58;4.50;;;1.80;;
1048;SDS011;513;51.444;7.196;2023-08-31T11:21:26;4.38;;;2.22;;
1048;SDS011;513;51.444;7.196;2023-08-31T11:23:53;4.55;;;1.83;;
1048;SDS011;513;51.444;7.196;2023-08-31T11:26:23;4.05;;;2.25;;
1048;SDS011;513;51.444;7.196;2023-08-31T11:28:50;4.50;;;2.10;;
1048;SDS011;513;51.444;7.196;2023-08-31T11:31:22;5.50;;;2.10;;
1048;SDS011;513;51.444;7.196;2023-08-31T11:33:49;5.05;;;2.00;;
1048;SDS011;513;51.444;7.196;2023-08-31T11:36:16;5.22;;;2.03;;
1048;SDS011;513;51.444;7.196;2023-08-31T11:38:45;5.70;;;2.10;;
1048;SDS011;513;51.444;7.196;2023-08-31T11:41:14;4.30;;;2.00;;
1048;SDS011;513;51.444;7.196;2023-08-31T11:43:41;4.78;;;2.10;;
1048;SDS011;513;51.444;7.196;2023-08-31T11:46:08;3.80;;;2.00;;
1048;SDS011;513;51.444;7.196;2023-08-31T11:48:35;4.18;;;2.10;;
1048;SDS011;513;51.444;7.196;2023-08-31T11:51:02;5.07;;;2.00;;
1048;SDS011;513;51.444;7.196;2023-08-31T11:53:29;6.50;;;2.63;;
1048;SDS011;513;51.444;7.196;2023-08-31T11:56:01;5.60;;;1.97;;
1048;SDS011;513;51.444;7.196;2023-08-31T11:58:28;4.20;;;2.10;;
1048;SDS011;513;51.444;7.196;2023-08-31T12:00:56;3.50;;;1.75;;
1048;SDS011;513;51.444;7.196;2023-08-31T12:03:23;3.13;;;1.85;;
1048;SDS011;513;51.444;7.196;2023-08-31T12:05:51;4.43;;;1.80;;
1048;SDS011;513;51.444;7.196;2023-08-31T12:08:23;5.00;;;1.90;;
1048;SDS011;513;51.444;7.196;2023-08-31T12:10:51;4.47;;;2.40;;
1048;SDS011;513;51.444;7.196;2023-08-31T12:13:19;5.07;;;2.00;;
1048;SDS011;513;51.444;7.196;2023-08-31T12:15:47;6.32;;;1.90;;
1048;SDS011;513;51.444;7.196;2023-08-31T12:18:14;5.50;;;2.00;;
1048;SDS011;513;51.444;7.196;2023-08-31T12:20:45;4.68;;;2.00;;
1048;SDS011;513;51.444;7.196;2023-08-31T12:23:12;4.73;;;2.27;;
1048;SDS011;513;51.444;7.196;2023-08-31T12:25:44;5.15;;;2.20;;
1048;SDS011;513;51.444;7.196;2023-08-31T12:28:11;3.75;;;2.17;;
1048;SDS011;513;51.444;7.196;2023-08-31T12:30:41;6.10;;;2.28;;
1048;SDS011;513;51.444;7.196;2023-08-31T12:33:09;4.30;;;2.07;;
1048;SDS011;513;51.444;7.196;2023-08-31T12:35:36;3.67;;;2.05;;
1048;SDS011;513;51.444;7.196;2023-08-31T12:38:04;6.20;;;2.00;;
1048;SDS011;513;51.444;7.196;2023-08-31T12:40:32;4.32;;;2.00;;
1048;SDS011;513;51.444;7.196;2023-08-31T12:42:59;5.32;;;2.13;;
1048;SDS011;513;51.444;7.196;2023-08-31T12:45:26;3.55;;;1.85;;
1048;SDS011;513;51.444;7.196;2023-08-31T12:47:54;4.53;;;2.00;;
1048;SDS011;513;51.444;7.196;2023-08-31T12:50:21;3.72;;;1.80;;
1048;SDS011;513;51.444;7.196;2023-08-31T12:52:48;4.70;;;1.90;;
1048;SDS011;513;51.444;7.196;2023-08-31T12:55:15;3.70;;;1.90;;
1048;SDS011;513;51.444;7.196;2023-08-31T12:57:43;3.17;;;1.70;;
1048;SDS011;513;51.444;7.196;2023-08-31T13:00:10;3.60;;;1.80;;
1048;SDS011;513;51.444;7.196;2023-08-31T13:02:38;5.20;;;1.98;;
1048;SDS011;513;51.444;7.196;2023-08-31T13:05:06;4.03;;;2.00;;
1048;SDS011;513;51.444;7.196;2023-08-31T13:07:34;7.10;;;2.17;;
1048;SDS011;513;51.444;7.196;2023-08-31T13:10:01;5.53;;;2.00;;
1048;SDS011;513;51.444;7.196;2023-08-31T13:12:29;5.97;;;2.10;;
1048;SDS011;513;51.444;7.196;2023-08-31T13:14:57;4.85;;;2.17;;
1048;SDS011;513;51.444;7.196;2023-08-31T13:17:24;5.28;;;2.13;;
1048;SDS011;513;51.444;7.196;2023-08-31T13:19:52;5.60;;;2.30;;
1048;SDS011;513;51.444;7.196;2023-08-31T13:22:21;6.57;;;2.28;;
1048;SDS011;513;51.444;7.196;2023-08-31T13:24:48;4.22;;;2.00;;
1048;SDS011;513;51.444;7.196;2023-08-31T13:27:15;5.22;;;1.95;;
1048;SDS011;513;51.444;7.196;2023-08-31T13:29:42;6.90;;;2.65;;
1048;SDS011;513;51.444;7.196;2023-08-31T13:32:09;4.32;;;2.20;;
1048;SDS011;513;51.444;7.196;2023-08-31T13:34:36;6.10;;;2.00;;
1048;SDS011;513;51.444;7.196;2023-08-31T13:37:03;6.88;;;2.00;;
1048;SDS011;513;51.444;7.196;2023-08-31T13:39:33;5.22;;;2.25;;
1048;SDS011;513;51.444;7.196;2023-08-31T13:42:00;5.63;;;2.25;;
1048;SDS011;513;51.444;7.196;2023-08-31T13:44:28;3.72;;;2.30;;
1048;SDS011;513;51.444;7.196;2023-08-31T13:46:56;5.33;;;2.10;;
1048;SDS011;513;51.444;7.196;2023-08-31T13:49:23;6.65;;;2.20;;
1048;SDS011;513;51.444;7.196;2023-08-31T13:51:50;3.97;;;2.20;;
1048;SDS011;513;51.444;7.196;2023-08-31T13:54:17;7.13;;;2.40;;
1048;SDS011;513;51.444;7.196;2023-08-31T13:56:45;4.35;;;2.20;;
1048;SDS011;513;51.444;7.196;2023-08-31T13:59:15;4.60;;;2.30;;
1048;SDS011;513;51.444;7.196;2023-08-31T14:01:42;6.10;;;2.20;;
1048;SDS011;513;51.444;7.196;2023-08-31T14:04:09;5.90;;;2.53;;
1048;SDS011;513;51.444;7.196;2023-08-31T14:06:36;5.30;;;2.25;;
1048;SDS011;513;51.444;7.196;2023-08-31T14:09:03;4.10;;;2.13;;
1048;SDS011;513;51.444;7.196;2023-08-31T14:11:30;4.38;;;1.80;;
1048;SDS011;513;51.444;7.196;2023-08-31T14:14:02;4.57;;;2.28;;
1048;SDS011;513;51.444;7.196;2023-08-31T14:16:31;4.43;;;2.10;;
1048;SDS011;513;51.444;7.196;2023-08-31T14:18:58;4.43;;;2.28;;
1048;SDS011;513;51.444;7.196;2023-08-31T14:21:25;3.75;;;2.00;;
1048;SDS011;513;51.444;7.196;2023-08-31T14:23:52;5.35;;;2.08;;
1048;SDS011;513;51.444;7.196;2023-08-31T14:26:20;4.47;;;2.10;;
1048;SDS011;513;51.444;7.196;2023-08-31T14:28:48;6.25;;;2.35;;
1048;SDS011;513;51.444;7.196;2023-08-31T14:31:16;5.13;;;2.33;;
1048;SDS011;513;51.444;7.196;2023-08-31T14:33:44;4.55;;;1.90;;
1048;SDS011;513;51.444;7.196;2023-08-31T14:36:11;6.55;;;2.00;;
1048;SDS011;513;51.444;7.196;2023-08-31T14:38:38;3.50;;;1.90;;
1048;SDS011;513;51.444;7.196;2023-08-31T14:41:05;5.72;;;2.78;;
1048;SDS011;513;51.444;7.196;2023-08-31T14:43:34;6.20;;;4.03;;
1048;SDS011;513;51.444;7.196;2023-08-31T14:46:01;7.15;;;5.03;;
1048;SDS011;513;51.444;7.196;2023-08-31T14:48:30;9.25;;;6.28;;
1048;SDS011;513;51.444;7.196;2023-08-31T14:50:57;7.90;;;6.68;;
1048;SDS011;513;51.444;7.196;2023-08-31T14:53:25;6.82;;;6.10;;
1048;SDS011;513;51.444;7.196;2023-08-31T14:55:53;7.63;;;6.15;;
1048;SDS011;513;51.444;7.196;2023-08-31T14:58:20;10.60;;;7.47;;
1048;SDS011;513;51.444;7.196;2023-08-31T15:00:47;12.45;;;7.72;;
1048;SDS011;513;51.444;7.196;2023-08-31T15:03:14;11.00;;;8.10;;
1048;SDS011;513;51.444;7.196;2023-08-31T15:05:42;10.57;;;8.02;;
1048;SDS011;513;51.444;7.196;2023-08-31T15:08:09;9.82;;;8.73;;
1048;SDS011;513;51.444;7.196;2023-08-31T15:10:37;12.35;;;8.93;;
1048;SDS011;513;51.444;7.196;2023-08-31T15:13:05;10.57;;;8.77;;
1048;SDS011;513;51.444;7.196;2023-08-31T15:15:32;10.52;;;8.70;;
1048;SDS011;513;51.444;7.196;2023-08-31T15:17:59;11.40;;;8.90;;
1048;SDS011;513;51.444;7.196;2023-08-31T15:20:26;10.38;;;8.75;;
1048;SDS011;513;51.444;7.196;2023-08-31T15:22:55;9.87;;;7.97;;
1048;SDS011;513;51.444;7.196;2023-08-31T15:25:22;10.65;;;8.05;;
1048;SDS011;513;51.444;7.196;2023-08-31T15:27:49;10.15;;;8.50;;
1048;SDS011;513;51.444;7.196;2023-08-31T15:30:16;10.97;;;8.30;;
1048;SDS011;513;51.444;7.196;2023-08-31T15:32:43;11.48;;;7.40;;